sensor_id;sensor_type;location;lat;lon;timestamp;P1;durP1;ratioP1;P2;durP2;ratioP2
21661;SDS011;10992;48.170;8.596;2024-03-25T00:01:33;7.20;;;4.20;;
21661;SDS011;10992;48.170;8.596;2024-03-25T00:03:59;8.40;;;4.80;;
21661;SDS011;10992;48.170;8.596;2024-03-25T00:06:25;8.70;;;4.60;;
21661;SDS011;10992;48.170;8.596;2024-03-25T00:08:51;9.23;;;4.50;;
21661;SDS011;10992;48.170;8.596;2024-03-25T00:11:17;8.25;;;4.72;;
21661;SDS011;10992;48.170;8.596;2024-03-25T00:13:43;8.15;;;4.38;;
21661;SDS011;10992;48.170;8.596;2024-03-25T00:16:09;8.65;;;4.68;;
21661;SDS011;10992;48.170;8.596;2024-03-25T00:18:35;10.85;;;5.00;;
21661;SDS011;10992;48.170;8.596;2024-03-25T00:21:01;9.57;;;4.90;;
21661;SDS011;10992;48.170;8.596;2024-03-25T00:23:27;6.97;;;5.07;;
21661;SDS011;10992;48.170;8.596;2024-03-25T00:25:53;14.43;;;5.10;;
21661;SDS011;10992;48.170;8.596;2024-03-25T00:28:19;9.52;;;5.05;;
21661;SDS011;10992;48.170;8.596;2024-03-25T00:30:45;11.75;;;5.40;;
21661;SDS011;10992;48.170;8.596;2024-03-25T00:33:11;11.57;;;5.35;;
21661;SDS011;10992;48.170;8.596;2024-03-25T00:35:37;11.75;;;6.07;;
21661;SDS011;10992;48.170;8.596;2024-03-25T00:38:05;11.85;;;5.60;;
21661;SDS011;10992;48.170;8.596;2024-03-25T00:40:32;9.68;;;5.45;;
21661;SDS011;10992;48.170;8.596;2024-03-25T00:42:59;10.82;;;5.72;;
21661;SDS011;10992;48.170;8.596;2024-03-25T00:45:25;9.35;;;5.00;;
21661;SDS011;10992;48.170;8.596;2024-03-25T00:47:56;10.85;;;5.10;;
21661;SDS011;10992;48.170;8.596;2024-03-25T00:50:22;7.43;;;4.55;;
21661;SDS011;10992;48.170;8.596;2024-03-25T00:52:48;8.77;;;4.60;;
21661;SDS011;10992;48.170;8.596;2024-03-25T00:55:14;12.60;;;5.63;;
21661;SDS011;10992;48.170;8.596;2024-03-25T00:57:40;10.20;;;5.72;;
21661;SDS011;10992;48.170;8.596;2024-03-25T01:00:07;9.25;;;5.43;;
21661;SDS011;10992;48.170;8.596;2024-03-25T01:02:33;13.32;;;5.50;;
21661;SDS011;10992;48.170;8.596;2024-03-25T01:04:59;11.73;;;4.90;;
21661;SDS011;10992;48.170;8.596;2024-03-25T01:07:25;11.40;;;5.40;;
21661;SDS011;10992;48.170;8.596;2024-03-25T01:09:51;11.63;;;5.22;;
21661;SDS011;10992;48.170;8.596;2024-03-25T01:12:17;14.07;;;5.60;;
21661;SDS011;10992;48.170;8.596;2024-03-25T01:14:43;8.30;;;4.75;;
21661;SDS011;10992;48.170;8.596;2024-03-25T01:17:09;11.60;;;5.78;;
21661;SDS011;10992;48.170;8.596;2024-03-25T01:19:34;11.63;;;5.68;;
21661;SDS011;10992;48.170;8.596;2024-03-25T01:22:00;10.18;;;5.43;;
21661;SDS011;10992;48.170;8.596;2024-03-25T01:24:26;14.27;;;6.15;;
21661;SDS011;10992;48.170;8.596;2024-03-25T01:26:52;11.30;;;4.90;;
21661;SDS011;10992;48.170;8.596;2024-03-25T01:29:18;8.82;;;5.15;;
21661;SDS011;10992;48.170;8.596;2024-03-25T01:31:44;9.75;;;4.88;;
21661;SDS011;10992;48.170;8.596;2024-03-25T01:34:10;8.30;;;5.07;;
21661;SDS011;10992;48.170;8.596;2024-03-25T01:36:36;7.32;;;4.68;;
21661;SDS011;10992;48.170;8.596;2024-03-25T01:39:02;7.95;;;5.00;;
21661;SDS011;10992;48.170;8.596;2024-03-25T01:41:30;12.57;;;5.32;;
21661;SDS011;10992;48.170;8.596;2024-03-25T01:43:56;11.52;;;4.82;;
21661;SDS011;10992;48.170;8.596;2024-03-25T01:46:22;11.70;;;4.93;;
21661;SDS011;10992;48.170;8.596;2024-03-25T01:48:48;10.80;;;5.32;;
21661;SDS011;10992;48.170;8.596;2024-03-25T01:51:16;10.20;;;5.00;;
21661;SDS011;10992;48.170;8.596;2024-03-25T01:53:44;10.55;;;4.97;;
21661;SDS011;10992;48.170;8.596;2024-03-25T01:56:12;11.02;;;5.50;;
21661;SDS011;10992;48.170;8.596;2024-03-25T01:58:39;9.00;;;5.45;;
21661;SDS011;10992;48.170;8.596;2024-03-25T02:01:05;9.80;;;5.22;;
21661;SDS011;10992;48.170;8.596;2024-03-25T02:03:34;10.50;;;5.25;;
21661;SDS011;10992;48.170;8.596;2024-03-25T02:06:04;14.35;;;5.97;;
21661;SDS011;10992;48.170;8.596;2024-03-25T02:08:34;10.25;;;5.20;;
21661;SDS011;10992;48.170;8.596;2024-03-25T02:11:00;9.95;;;5.70;;
21661;SDS011;10992;48.170;8.596;2024-03-25T02:13:27;11.63;;;5.75;;
21661;SDS011;10992;48.170;8.596;2024-03-25T02:15:53;15.25;;;5.97;;
21661;SDS011;10992;48.170;8.596;2024-03-25T02:18:20;9.15;;;5.85;;
21661;SDS011;10992;48.170;8.596;2024-03-25T02:20:46;10.70;;;6.50;;
21661;SDS011;10992;48.170;8.596;2024-03-25T02:23:15;11.13;;;5.90;;
21661;SDS011;10992;48.170;8.596;2024-03-25T02:25:42;14.40;;;6.53;;
21661;SDS011;10992;48.170;8.596;2024-03-25T02:28:08;14.27;;;6.45;;
21661;SDS011;10992;48.170;8.596;2024-03-25T02:30:34;13.85;;;6.57;;
21661;SDS011;10992;48.170;8.596;2024-03-25T02:33:02;15.88;;;6.28;;
21661;SDS011;10992;48.170;8.596;2024-03-25T02:35:28;10.00;;;5.65;;
21661;SDS011;10992;48.170;8.596;2024-03-25T02:37:55;13.65;;;5.95;;
21661;SDS011;10992;48.170;8.596;2024-03-25T02:40:20;14.75;;;6.15;;
21661;SDS011;10992;48.170;8.596;2024-03-25T02:42:48;9.10;;;5.82;;
21661;SDS011;10992;48.170;8.596;2024-03-25T02:45:14;13.13;;;6.53;;
21661;SDS011;10992;48.170;8.596;2024-03-25T02:47:41;11.45;;;6.25;;
21661;SDS011;10992;48.170;8.596;2024-03-25T02:50:10;10.00;;;5.63;;
21661;SDS011;10992;48.170;8.596;2024-03-25T02:52:35;10.05;;;6.35;;
21661;SDS011;10992;48.170;8.596;2024-03-25T02:55:01;10.05;;;6.07;;
21661;SDS011;10992;48.170;8.596;2024-03-25T02:57:28;10.57;;;5.57;;
21661;SDS011;10992;48.170;8.596;2024-03-25T02:59:53;11.68;;;6.70;;
21661;SDS011;10992;48.170;8.596;2024-03-25T03:02:19;13.13;;;5.93;;
21661;SDS011;10992;48.170;8.596;2024-03-25T03:04:45;7.72;;;5.13;;
21661;SDS011;10992;48.170;8.596;2024-03-25T03:07:14;12.15;;;5.88;;
21661;SDS011;10992;48.170;8.596;2024-03-25T03:09:40;13.52;;;6.80;;
21661;SDS011;10992;48.170;8.596;2024-03-25T03:12:06;13.85;;;6.25;;
21661;SDS011;10992;48.170;8.596;2024-03-25T03:14:32;10.75;;;5.50;;
21661;SDS011;10992;48.170;8.596;2024-03-25T03:16:58;12.18;;;5.85;;
21661;SDS011;10992;48.170;8.596;2024-03-25T03:19:27;12.88;;;6.18;;
21661;SDS011;10992;48.170;8.596;2024-03-25T03:21:55;9.05;;;5.82;;
21661;SDS011;10992;48.170;8.596;2024-03-25T03:24:21;12.38;;;5.47;;
21661;SDS011;10992;48.170;8.596;2024-03-25T03:26:48;13.07;;;5.47;;
21661;SDS011;10992;48.170;8.596;2024-03-25T03:29:14;9.45;;;4.75;;
21661;SDS011;10992;48.170;8.596;2024-03-25T03:31:40;11.25;;;5.22;;
21661;SDS011;10992;48.170;8.596;2024-03-25T03:34:06;10.98;;;6.28;;
21661;SDS011;10992;48.170;8.596;2024-03-25T03:36:32;11.23;;;5.88;;
21661;SDS011;10992;48.170;8.596;2024-03-25T03:38:58;10.10;;;5.93;;
21661;SDS011;10992;48.170;8.596;2024-03-25T03:41:24;10.68;;;5.40;;
21661;SDS011;10992;48.170;8.596;2024-03-25T03:43:49;6.20;;;4.50;;
21661;SDS011;10992;48.170;8.596;2024-03-25T03:46:15;9.05;;;5.03;;
21661;SDS011;10992;48.170;8.596;2024-03-25T03:48:41;11.02;;;5.68;;
21661;SDS011;10992;48.170;8.596;2024-03-25T03:51:07;10.10;;;5.13;;
21661;SDS011;10992;48.170;8.596;2024-03-25T03:53:34;15.27;;;5.18;;
21661;SDS011;10992;48.170;8.596;2024-03-25T03:56:01;11.90;;;5.45;;
21661;SDS011;10992;48.170;8.596;2024-03-25T03:58:33;10.63;;;4.88;;
21661;SDS011;10992;48.170;8.596;2024-03-25T04:01:00;11.02;;;5.75;;
21661;SDS011;10992;48.170;8.596;2024-03-25T04:03:26;11.80;;;5.78;;
21661;SDS011;10992;48.170;8.596;2024-03-25T04:05:52;14.20;;;5.70;;
21661;SDS011;10992;48.170;8.596;2024-03-25T04:08:18;11.95;;;6.18;;
21661;SDS011;10992;48.170;8.596;2024-03-25T04:10:44;14.23;;;5.57;;
21661;SDS011;10992;48.170;8.596;2024-03-25T04:13:10;18.17;;;5.65;;
21661;SDS011;10992;48.170;8.596;2024-03-25T04:15:43;9.48;;;5.30;;
21661;SDS011;10992;48.170;8.596;2024-03-25T04:18:09;9.73;;;5.22;;
21661;SDS011;10992;48.170;8.596;2024-03-25T04:20:41;15.30;;;5.65;;
21661;SDS011;10992;48.170;8.596;2024-03-25T04:23:07;9.13;;;5.40;;
21661;SDS011;10992;48.170;8.596;2024-03-25T04:25:33;12.45;;;5.55;;
21661;SDS011;10992;48.170;8.596;2024-03-25T04:28:03;11.32;;;5.85;;
21661;SDS011;10992;48.170;8.596;2024-03-25T04:30:31;11.45;;;5.60;;
21661;SDS011;10992;48.170;8.596;2024-03-25T04:32:58;11.88;;;5.90;;
21661;SDS011;10992;48.170;8.596;2024-03-25T04:35:24;16.30;;;7.32;;
21661;SDS011;10992;48.170;8.596;2024-03-25T04:37:50;13.43;;;7.07;;
21661;SDS011;10992;48.170;8.596;2024-03-25T04:40:16;12.75;;;6.72;;
21661;SDS011;10992;48.170;8.596;2024-03-25T04:42:44;11.35;;;5.72;;
21661;SDS011;10992;48.170;8.596;2024-03-25T04:45:10;11.00;;;5.55;;
21661;SDS011;10992;48.170;8.596;2024-03-25T04:47:37;11.15;;;6.65;;
21661;SDS011;10992;48.170;8.596;2024-03-25T04:50:03;10.43;;;5.47;;
21661;SDS011;10992;48.170;8.596;2024-03-25T04:52:30;11.00;;;5.60;;
21661;SDS011;10992;48.170;8.596;2024-03-25T04:54:56;13.50;;;5.93;;
21661;SDS011;10992;48.170;8.596;2024-03-25T04:57:22;9.00;;;5.53;;
21661;SDS011;10992;48.170;8.596;2024-03-25T04:59:48;12.88;;;5.85;;
21661;SDS011;10992;48.170;8.596;2024-03-25T05:02:14;8.38;;;5.47;;
21661;SDS011;10992;48.170;8.596;2024-03-25T05:04:41;10.68;;;5.90;;
21661;SDS011;10992;48.170;8.596;2024-03-25T05:07:07;13.63;;;5.78;;
21661;SDS011;10992;48.170;8.596;2024-03-25T05:09:32;10.65;;;5.93;;
21661;SDS011;10992;48.170;8.596;2024-03-25T05:11:58;14.00;;;6.28;;
21661;SDS011;10992;48.170;8.596;2024-03-25T05:14:24;11.57;;;7.03;;
21661;SDS011;10992;48.170;8.596;2024-03-25T05:16:50;13.73;;;6.97;;
21661;SDS011;10992;48.170;8.596;2024-03-25T05:19:17;11.65;;;6.78;;
21661;SDS011;10992;48.170;8.596;2024-03-25T05:21:43;11.40;;;7.10;;
21661;SDS011;10992;48.170;8.596;2024-03-25T05:24:10;15.68;;;7.65;;
21661;SDS011;10992;48.170;8.596;2024-03-25T05:26:36;15.80;;;8.57;;
21661;SDS011;10992;48.170;8.596;2024-03-25T05:29:02;16.10;;;8.45;;
21661;SDS011;10992;48.170;8.596;2024-03-25T05:31:28;16.33;;;9.48;;
21661;SDS011;10992;48.170;8.596;2024-03-25T05:33:54;16.95;;;9.55;;
21661;SDS011;10992;48.170;8.596;2024-03-25T05:36:20;20.70;;;12.13;;
21661;SDS011;10992;48.170;8.596;2024-03-25T05:38:46;20.08;;;10.07;;
21661;SDS011;10992;48.170;8.596;2024-03-25T05:41:12;14.52;;;9.10;;
21661;SDS011;10992;48.170;8.596;2024-03-25T05:43:37;14.00;;;8.50;;
21661;SDS011;10992;48.170;8.596;2024-03-25T05:46:03;13.27;;;6.78;;
21661;SDS011;10992;48.170;8.596;2024-03-25T05:48:30;12.57;;;6.40;;
21661;SDS011;10992;48.170;8.596;2024-03-25T05:51:05;9.20;;;5.20;;
21661;SDS011;10992;48.170;8.596;2024-03-25T05:53:32;8.57;;;5.47;;
21661;SDS011;10992;48.170;8.596;2024-03-25T05:55:59;9.43;;;4.68;;
21661;SDS011;10992;48.170;8.596;2024-03-25T05:58:25;8.95;;;5.32;;
21661;SDS011;10992;48.170;8.596;2024-03-25T06:00:52;7.78;;;4.88;;
21661;SDS011;10992;48.170;8.596;2024-03-25T06:03:21;6.50;;;4.22;;
21661;SDS011;10992;48.170;8.596;2024-03-25T06:05:47;5.45;;;3.47;;
21661;SDS011;10992;48.170;8.596;2024-03-25T06:08:13;5.45;;;3.78;;
21661;SDS011;10992;48.170;8.596;2024-03-25T06:10:50;5.07;;;3.00;;
21661;SDS011;10992;48.170;8.596;2024-03-25T06:13:16;5.05;;;3.45;;
21661;SDS011;10992;48.170;8.596;2024-03-25T06:15:43;6.18;;;3.58;;
21661;SDS011;10992;48.170;8.596;2024-03-25T06:18:09;6.90;;;3.70;;
21661;SDS011;10992;48.170;8.596;2024-03-25T06:20:35;4.35;;;3.10;;
21661;SDS011;10992;48.170;8.596;2024-03-25T06:23:01;4.63;;;3.17;;
21661;SDS011;10992;48.170;8.596;2024-03-25T06:25:27;5.80;;;3.25;;
21661;SDS011;10992;48.170;8.596;2024-03-25T06:27:53;4.53;;;2.63;;
21661;SDS011;10992;48.170;8.596;2024-03-25T06:30:19;4.35;;;2.70;;
21661;SDS011;10992;48.170;8.596;2024-03-25T06:33:04;4.82;;;2.75;;
21661;SDS011;10992;48.170;8.596;2024-03-25T06:35:48;2.60;;;2.20;;
21661;SDS011;10992;48.170;8.596;2024-03-25T06:38:15;4.85;;;2.53;;
21661;SDS011;10992;48.170;8.596;2024-03-25T06:40:41;3.95;;;2.42;;
21661;SDS011;10992;48.170;8.596;2024-03-25T06:43:07;3.83;;;2.72;;
21661;SDS011;10992;48.170;8.596;2024-03-25T06:45:33;4.53;;;3.00;;
21661;SDS011;10992;48.170;8.596;2024-03-25T06:47:59;3.90;;;2.67;;
21661;SDS011;10992;48.170;8.596;2024-03-25T06:50:25;3.15;;;2.38;;
21661;SDS011;10992;48.170;8.596;2024-03-25T06:52:52;3.38;;;1.85;;
21661;SDS011;10992;48.170;8.596;2024-03-25T06:55:18;3.75;;;2.17;;
21661;SDS011;10992;48.170;8.596;2024-03-25T06:57:48;3.38;;;2.42;;
21661;SDS011;10992;48.170;8.596;2024-03-25T07:00:14;3.00;;;2.10;;
21661;SDS011;10992;48.170;8.596;2024-03-25T07:02:40;3.65;;;2.20;;
21661;SDS011;10992;48.170;8.596;2024-03-25T07:05:06;6.43;;;2.80;;
21661;SDS011;10992;48.170;8.596;2024-03-25T07:07:33;3.25;;;2.10;;
21661;SDS011;10992;48.170;8.596;2024-03-25T07:09:59;3.95;;;2.47;;
21661;SDS011;10992;48.170;8.596;2024-03-25T07:12:26;3.28;;;2.25;;
21661;SDS011;10992;48.170;8.596;2024-03-25T07:14:53;3.13;;;2.63;;
21661;SDS011;10992;48.170;8.596;2024-03-25T07:17:19;2.80;;;2.30;;
21661;SDS011;10992;48.170;8.596;2024-03-25T07:19:47;5.32;;;2.30;;
21661;SDS011;10992;48.170;8.596;2024-03-25T07:22:13;4.00;;;2.35;;
21661;SDS011;10992;48.170;8.596;2024-03-25T07:24:40;4.20;;;2.00;;
21661;SDS011;10992;48.170;8.596;2024-03-25T07:27:06;4.07;;;2.75;;
21661;SDS011;10992;48.170;8.596;2024-03-25T07:29:32;5.72;;;2.20;;
21661;SDS011;10992;48.170;8.596;2024-03-25T07:31:58;4.30;;;2.30;;
21661;SDS011;10992;48.170;8.596;2024-03-25T07:34:25;2.78;;;2.17;;
21661;SDS011;10992;48.170;8.596;2024-03-25T07:36:52;3.70;;;2.42;;
21661;SDS011;10992;48.170;8.596;2024-03-25T07:39:17;3.03;;;2.20;;
21661;SDS011;10992;48.170;8.596;2024-03-25T07:41:43;4.13;;;2.38;;
21661;SDS011;10992;48.170;8.596;2024-03-25T07:44:09;3.22;;;2.10;;
21661;SDS011;10992;48.170;8.596;2024-03-25T07:46:35;2.97;;;2.00;;
21661;SDS011;10992;48.170;8.596;2024-03-25T07:49:01;2.92;;;2.00;;
21661;SDS011;10992;48.170;8.596;2024-03-25T07:51:27;3.50;;;2.00;;
21661;SDS011;10992;48.170;8.596;2024-03-25T07:53:53;3.42;;;2.20;;
21661;SDS011;10992;48.170;8.596;2024-03-25T07:56:20;3.60;;;2.38;;
21661;SDS011;10992;48.170;8.596;2024-03-25T07:58:46;5.25;;;2.17;;
21661;SDS011;10992;48.170;8.596;2024-03-25T08:01:12;4.40;;;2.47;;
21661;SDS011;10992;48.170;8.596;2024-03-25T08:03:38;3.95;;;2.13;;
21661;SDS011;10992;48.170;8.596;2024-03-25T08:06:04;2.42;;;1.73;;
21661;SDS011;10992;48.170;8.596;2024-03-25T08:08:29;3.15;;;2.25;;
21661;SDS011;10992;48.170;8.596;2024-03-25T08:10:55;4.40;;;1.98;;
21661;SDS011;10992;48.170;8.596;2024-03-25T08:13:21;2.47;;;1.83;;
21661;SDS011;10992;48.170;8.596;2024-03-25T08:15:47;2.47;;;1.90;;
21661;SDS011;10992;48.170;8.596;2024-03-25T08:18:13;3.15;;;1.85;;
21661;SDS011;10992;48.170;8.596;2024-03-25T08:20:39;2.45;;;1.60;;
21661;SDS011;10992;48.170;8.596;2024-03-25T08:23:05;5.18;;;1.98;;
21661;SDS011;10992;48.170;8.596;2024-03-25T08:25:32;2.65;;;1.77;;
21661;SDS011;10992;48.170;8.596;2024-03-25T08:27:58;3.47;;;1.52;;
21661;SDS011;10992;48.170;8.596;2024-03-25T08:30:24;3.20;;;1.75;;
21661;SDS011;10992;48.170;8.596;2024-03-25T08:32:50;3.45;;;1.55;;
21661;SDS011;10992;48.170;8.596;2024-03-25T08:35:16;3.55;;;1.80;;
21661;SDS011;10992;48.170;8.596;2024-03-25T08:37:43;4.45;;;2.20;;
21661;SDS011;10992;48.170;8.596;2024-03-25T08:40:09;3.78;;;2.10;;
21661;SDS011;10992;48.170;8.596;2024-03-25T08:42:35;2.83;;;1.50;;
21661;SDS011;10992;48.170;8.596;2024-03-25T08:45:01;2.95;;;1.60;;
21661;SDS011;10992;48.170;8.596;2024-03-25T08:47:28;2.40;;;1.42;;
21661;SDS011;10992;48.170;8.596;2024-03-25T08:49:53;2.85;;;1.63;;
21661;SDS011;10992;48.170;8.596;2024-03-25T08:52:19;3.58;;;1.58;;
21661;SDS011;10992;48.170;8.596;2024-03-25T08:54:45;2.20;;;1.25;;
21661;SDS011;10992;48.170;8.596;2024-03-25T08:57:11;2.28;;;1.20;;
21661;SDS011;10992;48.170;8.596;2024-03-25T08:59:41;4.32;;;1.52;;
21661;SDS011;10992;48.170;8.596;2024-03-25T09:02:07;3.40;;;1.73;;
21661;SDS011;10992;48.170;8.596;2024-03-25T09:04:33;2.22;;;1.23;;
21661;SDS011;10992;48.170;8.596;2024-03-25T09:06:59;3.47;;;1.75;;
21661;SDS011;10992;48.170;8.596;2024-03-25T09:09:25;2.58;;;1.50;;
21661;SDS011;10992;48.170;8.596;2024-03-25T09:12:10;2.70;;;1.27;;
21661;SDS011;10992;48.170;8.596;2024-03-25T09:14:37;2.90;;;1.70;;
21661;SDS011;10992;48.170;8.596;2024-03-25T09:17:04;3.22;;;1.23;;
21661;SDS011;10992;48.170;8.596;2024-03-25T09:19:30;2.38;;;1.08;;
21661;SDS011;10992;48.170;8.596;2024-03-25T09:21:56;3.78;;;0.90;;
21661;SDS011;10992;48.170;8.596;2024-03-25T09:24:21;3.85;;;1.38;;
21661;SDS011;10992;48.170;8.596;2024-03-25T09:26:52;2.75;;;1.17;;
21661;SDS011;10992;48.170;8.596;2024-03-25T09:29:18;2.83;;;1.40;;
21661;SDS011;10992;48.170;8.596;2024-03-25T09:31:43;4.80;;;1.30;;
21661;SDS011;10992;48.170;8.596;2024-03-25T09:34:09;2.25;;;1.27;;
21661;SDS011;10992;48.170;8.596;2024-03-25T09:36:35;2.70;;;1.00;;
21661;SDS011;10992;48.170;8.596;2024-03-25T09:39:01;2.70;;;1.20;;
21661;SDS011;10992;48.170;8.596;2024-03-25T09:41:30;2.40;;;1.10;;
21661;SDS011;10992;48.170;8.596;2024-03-25T09:44:00;2.67;;;0.70;;
21661;SDS011;10992;48.170;8.596;2024-03-25T09:46:26;2.47;;;1.00;;
21661;SDS011;10992;48.170;8.596;2024-03-25T09:48:52;3.28;;;0.82;;
21661;SDS011;10992;48.170;8.596;2024-03-25T09:51:19;2.97;;;0.80;;
21661;SDS011;10992;48.170;8.596;2024-03-25T09:53:46;3.67;;;1.20;;
21661;SDS011;10992;48.170;8.596;2024-03-25T09:56:12;3.58;;;0.93;;
21661;SDS011;10992;48.170;8.596;2024-03-25T09:58:39;3.30;;;1.25;;
21661;SDS011;10992;48.170;8.596;2024-03-25T10:01:07;4.28;;;1.45;;
21661;SDS011;10992;48.170;8.596;2024-03-25T10:03:32;1.65;;;0.85;;
21661;SDS011;10992;48.170;8.596;2024-03-25T10:05:58;2.92;;;1.10;;
21661;SDS011;10992;48.170;8.596;2024-03-25T10:08:24;2.05;;;1.35;;
21661;SDS011;10992;48.170;8.596;2024-03-25T10:10:55;2.75;;;1.20;;
21661;SDS011;10992;48.170;8.596;2024-03-25T10:13:22;2.55;;;1.15;;
21661;SDS011;10992;48.170;8.596;2024-03-25T10:15:48;2.88;;;0.98;;
21661;SDS011;10992;48.170;8.596;2024-03-25T10:18:15;2.90;;;1.15;;
21661;SDS011;10992;48.170;8.596;2024-03-25T10:20:52;2.17;;;1.10;;
21661;SDS011;10992;48.170;8.596;2024-03-25T10:23:22;3.47;;;1.33;;
21661;SDS011;10992;48.170;8.596;2024-03-25T10:25:52;3.15;;;0.95;;
21661;SDS011;10992;48.170;8.596;2024-03-25T10:28:18;4.07;;;1.05;;
21661;SDS011;10992;48.170;8.596;2024-03-25T10:30:44;5.55;;;1.25;;
21661;SDS011;10992;48.170;8.596;2024-03-25T10:33:11;3.65;;;0.90;;
21661;SDS011;10992;48.170;8.596;2024-03-25T10:35:37;1.90;;;0.80;;
21661;SDS011;10992;48.170;8.596;2024-03-25T10:38:06;3.58;;;1.00;;
21661;SDS011;10992;48.170;8.596;2024-03-25T10:40:36;3.97;;;1.25;;
21661;SDS011;10992;48.170;8.596;2024-03-25T10:43:08;2.75;;;1.13;;
21661;SDS011;10992;48.170;8.596;2024-03-25T10:45:49;2.15;;;1.05;;
21661;SDS011;10992;48.170;8.596;2024-03-25T10:48:20;2.10;;;0.73;;
21661;SDS011;10992;48.170;8.596;2024-03-25T10:50:52;2.35;;;0.65;;
21661;SDS011;10992;48.170;8.596;2024-03-25T10:53:20;2.25;;;1.00;;
21661;SDS011;10992;48.170;8.596;2024-03-25T10:55:50;6.43;;;1.10;;
21661;SDS011;10992;48.170;8.596;2024-03-25T10:58:19;2.60;;;1.17;;
21661;SDS011;10992;48.170;8.596;2024-03-25T11:00:51;3.17;;;1.13;;
21661;SDS011;10992;48.170;8.596;2024-03-25T11:03:20;4.88;;;1.27;;
21661;SDS011;10992;48.170;8.596;2024-03-25T11:05:47;1.95;;;1.10;;
21661;SDS011;10992;48.170;8.596;2024-03-25T11:08:13;4.82;;;1.33;;
21661;SDS011;10992;48.170;8.596;2024-03-25T11:10:41;3.38;;;1.35;;
21661;SDS011;10992;48.170;8.596;2024-03-25T11:13:18;2.70;;;1.15;;
21661;SDS011;10992;48.170;8.596;2024-03-25T11:15:45;2.53;;;1.10;;
21661;SDS011;10992;48.170;8.596;2024-03-25T11:18:13;4.05;;;1.17;;
21661;SDS011;10992;48.170;8.596;2024-03-25T11:20:44;2.95;;;0.95;;
21661;SDS011;10992;48.170;8.596;2024-03-25T11:23:10;1.63;;;0.90;;
21661;SDS011;10992;48.170;8.596;2024-03-25T11:25:38;4.18;;;1.20;;
21661;SDS011;10992;48.170;8.596;2024-03-25T11:28:05;4.20;;;1.23;;
21661;SDS011;10992;48.170;8.596;2024-03-25T11:30:32;3.35;;;1.35;;
21661;SDS011;10992;48.170;8.596;2024-03-25T11:33:01;2.83;;;1.10;;
21661;SDS011;10992;48.170;8.596;2024-03-25T11:35:36;3.28;;;1.10;;
21661;SDS011;10992;48.170;8.596;2024-03-25T11:38:03;5.00;;;1.58;;
21661;SDS011;10992;48.170;8.596;2024-03-25T11:40:29;4.32;;;1.30;;
21661;SDS011;10992;48.170;8.596;2024-03-25T11:42:56;5.05;;;1.58;;
21661;SDS011;10992;48.170;8.596;2024-03-25T11:45:23;2.00;;;1.00;;
21661;SDS011;10992;48.170;8.596;2024-03-25T11:47:50;2.42;;;1.30;;
21661;SDS011;10992;48.170;8.596;2024-03-25T11:50:17;2.40;;;1.10;;
21661;SDS011;10992;48.170;8.596;2024-03-25T11:52:46;2.20;;;0.95;;
21661;SDS011;10992;48.170;8.596;2024-03-25T11:55:17;3.20;;;1.20;;
21661;SDS011;10992;48.170;8.596;2024-03-25T11:57:43;1.95;;;1.08;;
21661;SDS011;10992;48.170;8.596;2024-03-25T12:00:10;2.88;;;1.10;;
21661;SDS011;10992;48.170;8.596;2024-03-25T12:02:42;3.08;;;1.30;;
21661;SDS011;10992;48.170;8.596;2024-03-25T12:05:09;2.45;;;1.05;;
21661;SDS011;10992;48.170;8.596;2024-03-25T12:07:36;1.95;;;0.75;;
21661;SDS011;10992;48.170;8.596;2024-03-25T12:10:02;1.92;;;1.13;;
21661;SDS011;10992;48.170;8.596;2024-03-25T12:12:47;2.90;;;1.27;;
21661;SDS011;10992;48.170;8.596;2024-03-25T12:15:19;2.95;;;1.05;;
21661;SDS011;10992;48.170;8.596;2024-03-25T12:17:45;2.70;;;1.00;;
21661;SDS011;10992;48.170;8.596;2024-03-25T12:20:12;2.08;;;1.00;;
21661;SDS011;10992;48.170;8.596;2024-03-25T12:22:41;1.45;;;0.70;;
21661;SDS011;10992;48.170;8.596;2024-03-25T12:25:07;1.42;;;0.80;;
21661;SDS011;10992;48.170;8.596;2024-03-25T12:27:35;1.98;;;0.60;;
21661;SDS011;10992;48.170;8.596;2024-03-25T12:30:03;1.20;;;0.43;;
21661;SDS011;10992;48.170;8.596;2024-03-25T12:32:35;1.98;;;0.90;;
21661;SDS011;10992;48.170;8.596;2024-03-25T12:35:10;1.40;;;0.60;;
21661;SDS011;10992;48.170;8.596;2024-03-25T12:37:44;1.42;;;0.77;;
21661;SDS011;10992;48.170;8.596;2024-03-25T12:40:12;2.58;;;0.68;;
21661;SDS011;10992;48.170;8.596;2024-03-25T12:42:51;2.17;;;1.05;;
21661;SDS011;10992;48.170;8.596;2024-03-25T12:45:19;2.35;;;0.70;;
21661;SDS011;10992;48.170;8.596;2024-03-25T12:47:46;1.83;;;0.80;;
21661;SDS011;10992;48.170;8.596;2024-03-25T12:50:12;4.70;;;1.90;;
21661;SDS011;10992;48.170;8.596;2024-03-25T12:52:38;1.58;;;0.80;;
21661;SDS011;10992;48.170;8.596;2024-03-25T12:55:04;2.13;;;1.15;;
21661;SDS011;10992;48.170;8.596;2024-03-25T12:57:30;1.55;;;0.90;;
21661;SDS011;10992;48.170;8.596;2024-03-25T12:59:56;3.35;;;1.10;;
21661;SDS011;10992;48.170;8.596;2024-03-25T13:02:22;1.55;;;0.90;;
21661;SDS011;10992;48.170;8.596;2024-03-25T13:04:48;2.25;;;0.90;;
21661;SDS011;10992;48.170;8.596;2024-03-25T13:07:14;2.05;;;0.80;;
21661;SDS011;10992;48.170;8.596;2024-03-25T13:09:40;1.15;;;0.60;;
21661;SDS011;10992;48.170;8.596;2024-03-25T13:12:06;3.13;;;0.73;;
21661;SDS011;10992;48.170;8.596;2024-03-25T13:14:32;2.38;;;0.75;;
21661;SDS011;10992;48.170;8.596;2024-03-25T13:16:58;1.00;;;0.55;;
21661;SDS011;10992;48.170;8.596;2024-03-25T13:19:24;1.08;;;0.50;;
21661;SDS011;10992;48.170;8.596;2024-03-25T13:21:53;0.90;;;0.50;;
21661;SDS011;10992;48.170;8.596;2024-03-25T13:24:21;1.85;;;0.50;;
21661;SDS011;10992;48.170;8.596;2024-03-25T13:26:46;2.38;;;0.82;;
21661;SDS011;10992;48.170;8.596;2024-03-25T13:29:12;1.58;;;0.70;;
21661;SDS011;10992;48.170;8.596;2024-03-25T13:31:38;2.15;;;0.60;;
21661;SDS011;10992;48.170;8.596;2024-03-25T13:34:04;1.52;;;0.60;;
21661;SDS011;10992;48.170;8.596;2024-03-25T13:36:31;1.40;;;0.63;;
21661;SDS011;10992;48.170;8.596;2024-03-25T13:38:57;1.45;;;0.77;;
21661;SDS011;10992;48.170;8.596;2024-03-25T13:41:23;2.25;;;0.60;;
21661;SDS011;10992;48.170;8.596;2024-03-25T13:43:49;1.77;;;0.60;;
21661;SDS011;10992;48.170;8.596;2024-03-25T13:46:16;1.30;;;0.73;;
21661;SDS011;10992;48.170;8.596;2024-03-25T13:48:42;2.05;;;0.50;;
21661;SDS011;10992;48.170;8.596;2024-03-25T13:51:08;1.50;;;0.80;;
21661;SDS011;10992;48.170;8.596;2024-03-25T13:53:34;1.25;;;0.77;;
21661;SDS011;10992;48.170;8.596;2024-03-25T13:56:00;1.58;;;0.77;;
21661;SDS011;10992;48.170;8.596;2024-03-25T13:58:26;2.22;;;0.80;;
21661;SDS011;10992;48.170;8.596;2024-03-25T14:00:52;2.67;;;0.73;;
21661;SDS011;10992;48.170;8.596;2024-03-25T14:03:19;1.27;;;0.73;;
21661;SDS011;10992;48.170;8.596;2024-03-25T14:05:45;1.25;;;0.68;;
21661;SDS011;10992;48.170;8.596;2024-03-25T14:08:11;2.22;;;0.80;;
21661;SDS011;10992;48.170;8.596;2024-03-25T14:10:38;2.53;;;0.88;;
21661;SDS011;10992;48.170;8.596;2024-03-25T14:13:03;2.20;;;0.70;;
21661;SDS011;10992;48.170;8.596;2024-03-25T14:15:31;1.25;;;0.80;;
21661;SDS011;10992;48.170;8.596;2024-03-25T14:17:57;2.28;;;0.82;;
21661;SDS011;10992;48.170;8.596;2024-03-25T14:20:23;1.85;;;0.95;;
21661;SDS011;10992;48.170;8.596;2024-03-25T14:22:49;2.80;;;0.85;;
21661;SDS011;10992;48.170;8.596;2024-03-25T14:25:15;1.77;;;0.70;;
21661;SDS011;10992;48.170;8.596;2024-03-25T14:27:41;1.63;;;0.90;;
21661;SDS011;10992;48.170;8.596;2024-03-25T14:30:07;2.10;;;0.80;;
21661;SDS011;10992;48.170;8.596;2024-03-25T14:32:36;2.13;;;1.00;;
21661;SDS011;10992;48.170;8.596;2024-03-25T14:35:04;2.15;;;0.90;;
21661;SDS011;10992;48.170;8.596;2024-03-25T14:37:34;2.72;;;0.82;;
21661;SDS011;10992;48.170;8.596;2024-03-25T14:40:00;2.85;;;1.00;;
21661;SDS011;10992;48.170;8.596;2024-03-25T14:42:26;2.83;;;1.13;;